createdAt,value
2019-03-18T00:01:07.037Z,0.92
2019-03-18T00:03:34.912Z,0.90
2019-03-18T00:06:03.210Z,0.86
2019-03-18T00:08:31.171Z,0.76
2019-03-18T00:10:58.726Z,0.72
2019-03-18T00:13:26.933Z,0.61
2019-03-18T00:15:54.857Z,0.66
2019-03-18T00:18:23.401Z,0.64
2019-03-18T00:20:51.962Z,0.67
2019-03-18T00:23:19.908Z,0.60
2019-03-18T00:25:48.595Z,0.69
2019-03-18T00:28:16.606Z,0.77
2019-03-18T00:30:44.881Z,0.67
2019-03-18T00:33:12.774Z,0.77
2019-03-18T00:35:41.301Z,0.70
2019-03-18T00:38:09.940Z,0.63
2019-03-18T00:40:38.530Z,0.75
2019-03-18T00:43:06.079Z,0.80
2019-03-18T00:45:34.385Z,0.83
2019-03-18T00:48:02.665Z,1.04
2019-03-18T00:50:30.942Z,1.05
2019-03-18T00:52:58.819Z,1.02
2019-03-18T00:55:27.017Z,1.09
2019-03-18T00:57:55.476Z,1.04
2019-03-18T01:00:23.302Z,1.03
2019-03-18T01:02:51.516Z,1.00
2019-03-18T01:05:19.839Z,1.01
2019-03-18T01:07:48.353Z,1.10
2019-03-18T01:10:16.850Z,1.18
2019-03-18T01:12:45.140Z,1.22
2019-03-18T01:18:33.931Z,1.37
2019-03-18T01:21:02.516Z,1.20
2019-03-18T01:23:30.765Z,1.18
2019-03-18T01:25:59.095Z,1.21
2019-03-18T01:28:27.455Z,1.23
2019-03-18T01:30:55.953Z,1.25
2019-03-18T01:33:24.586Z,1.16
2019-03-18T01:35:52.115Z,1.08
2019-03-18T01:38:20.385Z,1.01
2019-03-18T01:40:48.671Z,0.99
2019-03-18T01:43:17.362Z,0.95
2019-03-18T01:45:45.492Z,0.99
2019-03-18T01:48:13.417Z,0.97
2019-03-18T01:50:42.121Z,0.90
2019-03-18T01:53:10.911Z,0.80
2019-03-18T01:55:38.382Z,0.75
2019-03-18T01:58:06.959Z,0.71
2019-03-18T02:00:35.147Z,0.69
2019-03-18T02:03:03.000Z,0.76
2019-03-18T02:05:31.160Z,0.83
2019-03-18T02:07:59.468Z,0.95
2019-03-18T02:10:28.018Z,0.98
2019-03-18T02:13:15.889Z,1.06
2019-03-18T02:15:53.214Z,1.05
2019-03-18T02:18:24.010Z,0.98
2019-03-18T02:20:51.910Z,1.02
2019-03-18T02:23:20.405Z,1.00
2019-03-18T02:25:48.664Z,1.00
2019-03-18T02:28:17.249Z,0.89
2019-03-18T02:30:45.838Z,0.83
2019-03-18T02:33:13.759Z,0.93
2019-03-18T02:35:42.408Z,0.87
2019-03-18T02:38:11.032Z,0.83
2019-03-18T02:40:39.276Z,0.84
2019-03-18T02:43:07.672Z,0.93
2019-03-18T02:45:36.221Z,0.98
2019-03-18T02:48:03.766Z,1.03
2019-03-18T02:50:32.397Z,1.06
2019-03-18T02:53:00.636Z,1.08
2019-03-18T02:55:29.251Z,1.03
2019-03-18T02:57:57.808Z,0.98
2019-03-18T03:00:26.365Z,0.96
2019-03-18T03:02:54.869Z,0.92
2019-03-18T03:05:23.107Z,0.91
2019-03-18T03:07:51.322Z,0.86
2019-03-18T03:10:20.082Z,0.84
2019-03-18T03:12:48.351Z,0.83
2019-03-18T03:15:17.160Z,0.84
2019-03-18T03:17:45.746Z,0.78
2019-03-18T03:20:13.846Z,0.78
2019-03-18T03:22:42.027Z,0.80
2019-03-18T03:25:50.256Z,0.86
2019-03-18T03:28:18.127Z,0.90
2019-03-18T03:30:46.363Z,0.82
2019-03-18T03:33:15.049Z,0.77
2019-03-18T03:35:43.230Z,0.76
2019-03-18T03:38:11.506Z,0.89
2019-03-18T03:40:40.250Z,0.86
2019-03-18T03:43:08.590Z,0.86
2019-03-18T03:45:36.874Z,0.82
2019-03-18T03:48:05.245Z,0.84
2019-03-18T03:50:33.435Z,0.85
2019-03-18T03:53:01.714Z,0.92
2019-03-18T03:55:30.330Z,0.94
2019-03-18T03:57:58.387Z,0.98
2019-03-18T04:00:26.897Z,0.97
2019-03-18T04:02:54.870Z,1.01
2019-03-18T04:05:23.525Z,1.00
2019-03-18T04:07:51.811Z,0.97
2019-03-18T04:10:20.338Z,1.10
2019-03-18T04:12:48.682Z,1.12
2019-03-18T04:15:17.102Z,1.15
2019-03-18T04:17:45.705Z,1.04
2019-03-18T04:20:14.567Z,1.11
2019-03-18T04:22:43.068Z,1.06
2019-03-18T04:25:11.321Z,1.14
2019-03-18T04:27:39.542Z,1.19
2019-03-18T04:30:08.300Z,1.12
2019-03-18T04:32:36.791Z,1.11
2019-03-18T04:35:04.567Z,1.08
2019-03-18T04:37:33.154Z,1.06
2019-03-18T04:40:01.440Z,1.09
2019-03-18T04:42:29.707Z,1.01
2019-03-18T04:44:57.571Z,1.01
2019-03-18T04:50:53.703Z,0.82
2019-03-18T04:53:21.673Z,0.78
2019-03-18T04:56:02.058Z,0.79
2019-03-18T05:01:50.368Z,0.76
2019-03-18T05:04:18.894Z,0.72
2019-03-18T05:07:18.426Z,0.72
2019-03-18T05:12:59.176Z,0.69
2019-03-18T05:15:27.767Z,0.65
2019-03-18T05:18:36.798Z,0.60
2019-03-18T05:21:24.028Z,0.62
2019-03-18T05:26:31.362Z,0.64
2019-03-18T05:28:59.962Z,0.58
2019-03-18T05:40:51.279Z,0.63
2019-03-18T05:43:59.571Z,0.60
2019-03-18T05:46:28.204Z,0.76
2019-03-18T05:48:56.524Z,0.70
2019-03-18T05:51:25.171Z,0.74
2019-03-18T05:53:53.398Z,0.73
2019-03-18T05:56:22.087Z,0.70
2019-03-18T05:58:50.381Z,0.71
2019-03-18T06:01:18.603Z,0.74
2019-03-18T06:03:47.346Z,0.74
2019-03-18T06:06:15.543Z,0.72
2019-03-18T06:08:44.218Z,0.77
2019-03-18T06:11:12.682Z,0.78
2019-03-18T06:13:41.293Z,0.70
2019-03-18T06:16:09.834Z,0.67
2019-03-18T06:18:38.173Z,0.72
2019-03-18T06:21:06.398Z,0.83
2019-03-18T06:23:34.640Z,0.88
2019-03-18T06:26:02.956Z,0.88
2019-03-18T06:28:31.550Z,0.96
2019-03-18T06:30:59.422Z,0.95
2019-03-18T06:33:27.353Z,0.92
2019-03-18T06:35:55.642Z,0.96
2019-03-18T06:38:24.329Z,0.93
2019-03-18T06:40:53.261Z,0.98
2019-03-18T06:43:22.035Z,0.95
2019-03-18T06:45:50.233Z,0.84
2019-03-18T06:48:18.676Z,0.75
2019-03-18T06:50:46.869Z,0.72
2019-03-18T06:53:15.518Z,0.81
2019-03-18T06:55:43.784Z,0.76
2019-03-18T06:58:11.974Z,0.76
2019-03-18T07:00:39.888Z,0.74
2019-03-18T07:03:08.271Z,0.78
2019-03-18T07:05:36.981Z,0.87
2019-03-18T07:08:05.588Z,0.91
2019-03-18T07:10:33.772Z,1.15
2019-03-18T07:13:02.087Z,1.42
2019-03-18T07:15:30.797Z,1.68
2019-03-18T07:17:59.023Z,1.77
2019-03-18T07:20:27.358Z,1.79
2019-03-18T07:22:55.580Z,1.84
2019-03-18T07:25:24.807Z,1.90
2019-03-18T07:27:53.102Z,1.92
2019-03-18T07:30:21.485Z,1.85
2019-03-18T07:32:50.109Z,1.78
2019-03-18T07:38:21.080Z,1.70
2019-03-18T07:40:49.704Z,1.67
2019-03-18T07:43:18.037Z,1.64
2019-03-18T07:45:46.630Z,1.61
2019-03-18T07:48:15.201Z,1.56
2019-03-18T07:50:43.108Z,1.52
2019-03-18T07:53:11.016Z,1.63
2019-03-18T07:55:39.359Z,1.68
2019-03-18T07:58:08.389Z,1.83
2019-03-18T08:00:37.563Z,2.01
2019-03-18T08:03:08.271Z,2.10
2019-03-18T08:05:36.554Z,2.13
2019-03-18T08:08:05.095Z,2.18
2019-03-18T08:10:33.677Z,2.13
2019-03-18T08:13:01.845Z,2.18
2019-03-18T08:15:29.999Z,2.19
2019-03-18T08:17:58.686Z,2.18
2019-03-18T08:20:27.331Z,2.15
2019-03-18T08:22:55.668Z,2.15
2019-03-18T08:25:23.952Z,2.21
2019-03-18T08:27:52.636Z,2.35
2019-03-18T08:30:21.326Z,2.42
2019-03-18T08:32:49.892Z,2.73
2019-03-18T08:35:18.198Z,2.95
2019-03-18T08:37:46.888Z,2.98
2019-03-18T08:40:14.436Z,2.86
2019-03-18T08:42:43.087Z,2.92
2019-03-18T08:45:11.010Z,2.81
2019-03-18T08:47:39.418Z,2.69
2019-03-18T08:53:09.342Z,2.42
2019-03-18T08:55:37.988Z,2.38
2019-03-18T08:58:06.197Z,2.54
2019-03-18T09:00:34.412Z,2.69
2019-03-18T09:03:02.669Z,2.68
2019-03-18T09:05:30.958Z,2.60
2019-03-18T09:07:59.543Z,2.54
2019-03-18T09:10:27.926Z,2.33
2019-03-18T09:12:56.197Z,2.22
2019-03-18T09:15:24.488Z,2.24
2019-03-18T09:17:53.079Z,2.38
2019-03-18T09:20:21.659Z,2.70
2019-03-18T09:22:50.255Z,3.30
2019-03-18T09:25:18.533Z,3.30
2019-03-18T09:27:47.122Z,3.51
2019-03-18T09:30:15.600Z,3.45
2019-03-18T09:32:43.888Z,3.64
2019-03-18T09:35:24.421Z,3.87
2019-03-18T09:37:52.733Z,4.17
2019-03-18T09:40:20.709Z,4.61
2019-03-18T09:42:49.289Z,4.99
2019-03-18T09:45:17.425Z,5.15
2019-03-18T09:47:45.642Z,4.92
2019-03-18T09:50:14.192Z,4.41
2019-03-18T09:52:42.416Z,4.28
2019-03-18T09:55:10.298Z,4.16
2019-03-18T09:57:38.578Z,3.96
2019-03-18T10:00:07.103Z,3.72
2019-03-18T10:02:35.682Z,4.24
2019-03-18T10:05:25.189Z,5.45
2019-03-18T10:07:53.746Z,5.45
2019-03-18T10:10:21.629Z,5.02
2019-03-18T10:12:50.270Z,4.59
2019-03-18T10:15:18.147Z,4.29
2019-03-18T10:17:46.121Z,4.08
2019-03-18T10:20:14.644Z,4.11
2019-03-18T10:22:42.525Z,4.33
2019-03-18T10:25:10.871Z,4.45
2019-03-18T10:27:39.260Z,4.56
2019-03-18T10:30:07.779Z,4.44
2019-03-18T10:32:36.189Z,4.35
2019-03-18T10:35:04.758Z,4.44
2019-03-18T10:37:32.900Z,4.23
2019-03-18T10:40:02.876Z,3.85
2019-03-18T10:42:31.119Z,3.45
2019-03-18T10:44:59.776Z,3.08
2019-03-18T10:47:28.470Z,2.71
2019-03-18T10:49:56.679Z,2.61
2019-03-18T10:52:24.973Z,2.68
2019-03-18T10:54:53.663Z,2.63
2019-03-18T10:57:21.912Z,3.00
2019-03-18T10:59:49.834Z,4.30
2019-03-18T11:02:18.490Z,5.82
2019-03-18T11:04:46.815Z,6.70
2019-03-18T11:07:15.007Z,6.67
2019-03-18T11:09:43.628Z,5.83
2019-03-18T11:12:11.835Z,4.90
2019-03-18T11:14:40.130Z,3.49
2019-03-18T11:17:48.799Z,2.87
2019-03-18T11:20:16.770Z,2.32
2019-03-18T11:22:45.462Z,2.23
2019-03-18T11:28:56.842Z,2.65
2019-03-18T11:31:25.194Z,3.04
2019-03-18T11:33:53.760Z,3.08
2019-03-18T11:36:21.663Z,3.11
2019-03-18T11:38:49.551Z,3.45
2019-03-18T11:41:18.300Z,3.88
2019-03-18T11:43:46.783Z,4.17
2019-03-18T11:46:15.004Z,3.98
2019-03-18T11:48:42.903Z,4.31
2019-03-18T11:51:11.536Z,4.42
2019-03-18T11:53:40.364Z,4.65
2019-03-18T11:58:36.681Z,4.20
2019-03-18T12:01:04.588Z,4.15
2019-03-18T12:03:32.559Z,4.09
2019-03-18T12:06:00.509Z,3.92
2019-03-18T12:08:28.818Z,3.93
2019-03-18T12:10:57.459Z,4.04
2019-03-18T12:13:26.231Z,4.02
2019-03-18T12:15:54.500Z,4.33
2019-03-18T12:18:22.993Z,5.34
2019-03-18T12:20:51.659Z,5.67
2019-03-18T12:23:20.292Z,5.55
2019-03-18T12:25:48.642Z,5.58
2019-03-18T12:28:17.312Z,5.68
2019-03-18T12:30:45.940Z,5.86
2019-03-18T12:33:14.318Z,6.55
2019-03-18T12:35:42.805Z,7.01
2019-03-18T12:38:11.538Z,7.18
2019-03-18T12:40:39.909Z,6.39
2019-03-18T12:43:08.570Z,6.12
2019-03-18T12:45:36.780Z,6.28
2019-03-18T12:48:05.033Z,6.66
2019-03-18T12:50:49.260Z,6.07
2019-03-18T12:53:13.570Z,5.92
2019-03-18T12:55:41.483Z,5.54
2019-03-18T12:58:09.812Z,5.85
2019-03-18T13:00:38.126Z,5.81
2019-03-18T13:03:06.902Z,5.36
2019-03-18T13:05:35.609Z,5.01
2019-03-18T13:08:44.316Z,4.76
2019-03-18T13:11:31.933Z,4.56
2019-03-18T13:14:00.493Z,4.64
2019-03-18T13:16:28.685Z,4.81
2019-03-18T13:21:36.693Z,5.82
2019-03-18T13:24:05.547Z,6.61
2019-03-18T13:26:33.138Z,6.39
2019-03-18T13:29:01.163Z,5.70
2019-03-18T13:31:29.530Z,5.24
2019-03-18T13:33:58.209Z,4.91
2019-03-18T13:37:06.819Z,4.75
2019-03-18T13:39:54.136Z,4.83
2019-03-18T13:42:22.450Z,5.15
2019-03-18T13:44:50.695Z,6.12
2019-03-18T13:47:19.384Z,6.46
2019-03-18T13:49:47.673Z,6.58
2019-03-18T13:52:16.043Z,6.56
2019-03-18T13:54:44.718Z,6.39
2019-03-18T13:57:12.649Z,6.07
2019-03-18T13:59:41.205Z,6.25
2019-03-18T14:02:09.388Z,7.13
2019-03-18T14:04:37.850Z,8.51
2019-03-18T14:07:06.520Z,9.50
2019-03-18T14:09:34.494Z,8.97
2019-03-18T14:12:02.829Z,8.37
2019-03-18T14:14:31.214Z,7.73
2019-03-18T14:16:58.775Z,8.02
2019-03-18T14:19:27.163Z,9.34
2019-03-18T14:21:56.700Z,9.67
2019-03-18T14:24:25.050Z,8.82
2019-03-18T14:26:53.554Z,8.35
2019-03-18T14:29:21.799Z,8.01
2019-03-18T14:31:50.114Z,7.53
2019-03-18T14:34:18.797Z,7.19
2019-03-18T14:36:47.179Z,7.02
2019-03-18T14:39:15.573Z,7.10
2019-03-18T14:41:43.526Z,8.22
2019-03-18T14:44:11.776Z,8.45
2019-03-18T14:46:40.207Z,8.35
2019-03-18T14:49:08.747Z,10.66
2019-03-18T14:54:39.026Z,13.09
2019-03-18T14:57:07.300Z,13.59
2019-03-18T14:59:35.658Z,12.59
2019-03-18T15:02:04.532Z,10.38
2019-03-18T15:04:32.677Z,8.66
2019-03-18T15:07:01.066Z,7.27
2019-03-18T15:09:29.885Z,6.36
2019-03-18T15:11:58.554Z,5.80
2019-03-18T15:14:26.911Z,5.48
2019-03-18T15:16:55.215Z,5.30
2019-03-18T15:22:32.801Z,4.81
2019-03-18T15:25:01.092Z,4.47
2019-03-18T15:27:29.600Z,4.07
2019-03-18T15:29:58.284Z,3.76
2019-03-18T15:32:27.425Z,3.42
2019-03-18T15:34:55.509Z,3.14
2019-03-18T15:37:24.766Z,2.90
2019-03-18T15:39:53.335Z,2.51
2019-03-18T15:42:33.095Z,3.45
2019-03-18T15:47:57.361Z,4.34
2019-03-18T15:50:26.369Z,4.43
2019-03-18T15:53:34.996Z,4.21
2019-03-18T15:56:03.879Z,4.02
2019-03-18T15:58:32.434Z,3.61
2019-03-18T16:01:01.067Z,3.32
2019-03-18T16:03:29.290Z,3.10
2019-03-18T16:05:57.608Z,2.92
2019-03-18T16:08:25.836Z,2.77
2019-03-18T16:10:53.889Z,2.69
2019-03-18T16:16:21.986Z,3.17
2019-03-18T16:18:50.699Z,4.27
2019-03-18T16:21:18.620Z,4.24
2019-03-18T16:23:47.311Z,4.06
2019-03-18T16:26:15.896Z,3.69
2019-03-18T16:28:44.747Z,3.43
2019-03-18T16:31:12.715Z,3.23
2019-03-18T16:33:41.427Z,3.89
2019-03-18T16:36:09.337Z,5.40
2019-03-18T16:38:37.998Z,5.56
2019-03-18T16:41:46.617Z,5.05
2019-03-18T16:44:15.214Z,4.50
2019-03-18T16:46:43.094Z,3.92
2019-03-18T16:49:11.782Z,3.51
2019-03-18T16:51:40.149Z,3.16
2019-03-18T16:54:27.569Z,2.98
2019-03-18T16:56:55.879Z,2.94
2019-03-18T16:59:24.760Z,2.85
2019-03-18T17:01:53.056Z,2.79
2019-03-18T17:04:21.861Z,2.71
2019-03-18T17:06:50.536Z,2.64
2019-03-18T17:09:18.879Z,2.44
2019-03-18T17:11:47.640Z,2.45
2019-03-18T17:14:16.307Z,2.41
2019-03-18T17:16:44.375Z,2.37
2019-03-18T17:19:12.597Z,2.36
2019-03-18T17:21:40.560Z,2.26
2019-03-18T17:24:08.913Z,2.18
2019-03-18T17:26:36.929Z,2.08
2019-03-18T17:29:05.302Z,2.00
2019-03-18T17:31:33.649Z,1.92
2019-03-18T17:34:01.641Z,1.84
2019-03-18T17:36:29.929Z,1.71
2019-03-18T17:38:58.455Z,1.68
2019-03-18T17:41:27.315Z,1.54
2019-03-18T17:43:55.391Z,1.46
2019-03-18T17:46:23.746Z,1.37
2019-03-18T17:48:52.046Z,1.19
2019-03-18T17:51:20.060Z,1.11
2019-03-18T17:53:48.297Z,0.99
2019-03-18T17:56:29.353Z,0.87
2019-03-18T17:58:53.769Z,0.78
2019-03-18T18:02:02.381Z,0.73
2019-03-18T18:04:30.859Z,0.76
2019-03-18T18:06:58.869Z,0.73
2019-03-18T18:09:38.711Z,0.69
2019-03-18T18:12:07.212Z,0.82
2019-03-18T18:14:35.857Z,0.79
2019-03-18T18:17:03.770Z,0.82
2019-03-18T18:19:32.176Z,0.74
2019-03-18T18:22:00.562Z,0.71
2019-03-18T18:24:28.839Z,0.67
2019-03-18T18:26:57.167Z,0.58
2019-03-18T18:29:25.125Z,0.60
2019-03-18T18:31:53.486Z,0.59
2019-03-18T18:34:21.744Z,0.60
2019-03-18T18:36:49.866Z,0.59
2019-03-18T18:39:17.852Z,0.56
2019-03-18T18:41:46.232Z,0.53
2019-03-18T18:44:15.033Z,0.52
2019-03-18T18:46:43.013Z,0.48
2019-03-18T18:49:11.306Z,0.48
2019-03-18T18:51:39.404Z,0.45
2019-03-18T18:54:06.972Z,0.38
2019-03-18T18:56:34.905Z,0.27
2019-03-18T18:59:02.471Z,0.19
2019-03-18T19:01:31.035Z,0.14
2019-03-18T19:03:59.073Z,0.11
2019-03-18T19:06:27.689Z,0.09
2019-03-18T19:08:55.725Z,0.09
2019-03-18T19:11:24.074Z,0.08
2019-03-18T19:13:52.781Z,0.06
2019-03-18T19:16:20.971Z,0.02
2019-03-18T19:18:48.931Z,0.00
2019-03-18T19:21:17.710Z,-0.02
2019-03-18T19:23:46.420Z,-0.07
2019-03-18T19:26:14.079Z,-0.07
2019-03-18T19:28:42.594Z,-0.03
2019-03-18T19:31:11.456Z,0.01
2019-03-18T19:33:39.354Z,-0.02
2019-03-18T19:36:07.691Z,-0.08
2019-03-18T19:38:35.635Z,-0.08
2019-03-18T19:41:04.429Z,-0.14
2019-03-18T19:43:33.001Z,-0.19
2019-03-18T19:46:01.483Z,-0.25
2019-03-18T19:48:29.657Z,-0.23
2019-03-18T19:50:58.041Z,-0.27
2019-03-18T19:53:26.677Z,-0.30
2019-03-18T19:55:54.591Z,-0.29
2019-03-18T19:58:22.468Z,-0.27
2019-03-18T20:00:50.862Z,-0.31
2019-03-18T20:03:19.144Z,-0.33
2019-03-18T20:05:47.445Z,-0.34
2019-03-18T20:08:15.907Z,-0.38
2019-03-18T20:10:44.306Z,-0.44
2019-03-18T20:13:12.339Z,-0.49
2019-03-18T20:15:40.746Z,-0.55
2019-03-18T20:18:50.177Z,-0.50
2019-03-18T20:24:27.566Z,-0.57
2019-03-18T20:26:55.779Z,-0.54
2019-03-18T20:29:36.013Z,-0.54
2019-03-18T20:32:03.899Z,-0.51
2019-03-18T20:34:32.310Z,-0.48
2019-03-18T20:36:59.834Z,-0.52
2019-03-18T20:39:28.461Z,-0.56
2019-03-18T20:41:56.505Z,-0.61
2019-03-18T20:44:25.250Z,-0.65
2019-03-18T20:46:53.976Z,-0.61
2019-03-18T20:50:02.304Z,-0.54
2019-03-18T20:52:29.904Z,-0.52
2019-03-18T20:54:57.804Z,-0.54
2019-03-18T20:57:26.090Z,-0.53
2019-03-18T20:59:54.274Z,-0.51
2019-03-18T21:02:22.244Z,-0.52
2019-03-18T21:04:50.543Z,-0.53
2019-03-18T21:07:18.491Z,-0.49
2019-03-18T21:09:46.810Z,-0.48
2019-03-18T21:12:14.950Z,-0.48
2019-03-18T21:14:43.640Z,-0.49
2019-03-18T21:17:12.380Z,-0.47
2019-03-18T21:19:40.719Z,-0.47
2019-03-18T21:22:09.206Z,-0.50
2019-03-18T21:24:37.173Z,-0.48
2019-03-18T21:27:05.828Z,-0.46
2019-03-18T21:29:34.501Z,-0.43
2019-03-18T21:32:02.849Z,-0.40
2019-03-18T21:34:31.149Z,-0.35
2019-03-18T21:36:59.877Z,-0.32
2019-03-18T21:39:29.270Z,-0.28
2019-03-18T21:41:57.089Z,-0.28
2019-03-18T21:44:44.973Z,-0.31
2019-03-18T21:50:56.793Z,-0.35
2019-03-18T21:56:46.641Z,-0.49
2019-03-18T21:59:15.002Z,-0.56
2019-03-18T22:01:43.384Z,-0.58
2019-03-18T22:04:11.880Z,-0.62
2019-03-18T22:06:39.854Z,-0.60
2019-03-18T22:09:08.333Z,-0.54
2019-03-18T22:11:37.244Z,-0.52
2019-03-18T22:14:24.975Z,-0.33
2019-03-18T22:16:53.369Z,-0.45
2019-03-18T22:19:22.229Z,-0.50
2019-03-18T22:22:09.655Z,-0.51
2019-03-18T22:24:45.167Z,-0.57
2019-03-18T22:27:08.352Z,-0.72
2019-03-18T22:29:37.179Z,-0.78
2019-03-18T22:32:05.429Z,-0.78
2019-03-18T22:34:34.595Z,-0.84
2019-03-18T22:37:02.924Z,-0.84
2019-03-18T22:39:31.162Z,-0.91
2019-03-18T22:42:19.238Z,-0.96
2019-03-18T22:44:48.022Z,-0.96
2019-03-18T22:47:16.629Z,-0.99
2019-03-18T22:49:44.203Z,-1.02
2019-03-18T22:52:12.071Z,-1.08
2019-03-18T22:54:40.641Z,-1.09
2019-03-18T22:57:08.816Z,-1.12
2019-03-18T22:59:37.118Z,-1.19
2019-03-18T23:02:05.382Z,-1.23
2019-03-18T23:05:13.651Z,-1.28
2019-03-18T23:07:42.281Z,-1.28
2019-03-18T23:10:10.480Z,-1.29
2019-03-18T23:12:38.849Z,-1.22
2019-03-18T23:15:07.220Z,-1.11
2019-03-18T23:17:54.071Z,-1.16
2019-03-18T23:21:02.747Z,-1.29
2019-03-18T23:23:31.405Z,-1.43
2019-03-18T23:25:59.948Z,-1.57
2019-03-18T23:28:28.602Z,-1.62
2019-03-18T23:30:57.207Z,-1.61
2019-03-18T23:33:25.876Z,-1.66
2019-03-18T23:35:54.176Z,-1.69
2019-03-18T23:38:22.329Z,-1.71
2019-03-18T23:40:50.921Z,-1.59
2019-03-18T23:43:19.248Z,-1.59
2019-03-18T23:45:47.525Z,-1.66
2019-03-18T23:48:15.352Z,-1.71
2019-03-18T23:50:43.575Z,-1.77
2019-03-18T23:53:11.419Z,-1.82
2019-03-18T23:55:39.267Z,-1.84
2019-03-18T23:58:07.570Z,-1.86
